Tropical Cyclones
[Index]
Main Index Home Page Stock Weather Photos Extreme Storms Discussion Storm News and Storm Chasing Reports Tropical Cyclones / Hurricanes / Typhoons Weather Data and Links Wild Fires / Bushfires Weather Observation Techniques Weather Picture Catalogue Tornado Pictures and Reports Stock Video Footage and DVDs for sale
Season 1997-1998 Tropical Cyclone YALI Track Map
Season 1997-1998 Summaries (Operational Data): [AU] [SIO] [SPAC] [SH]
<<- Previous TC | 1997-1998 Season | Next TC ->>

click for intensity scale information  Lat/long Grid: Show Hide

 Date Labels: Show Hide

Operational Tropical Cyclone Data : JTWC Advisories

Name: YALI
Number: 9829

18 Mar 1998 12:00 UTC to 27 Mar 1998 00:00 UTC

    date/time    lat    long     hPa   cat  kts
1998-03-18 12   11.9   166.9            1    35          
1998-03-18 18   12.5   165.5     999         25          
1998-03-19 00   12.5   165.3     999         25          
1998-03-19 06   13.0   164.8     997         30          
1998-03-19 12   13.5   164.0     997         30          
1998-03-19 18   13.6   163.6     995    1    35          
1998-03-20 00   13.6   163.5     990    1    40          
1998-03-20 06   13.7   164.0     987    1    45          
1998-03-20 12   14.0   164.2     985    2    50          
1998-03-20 18   14.7   164.4     980    2    55          
1998-03-21 00   15.9   164.8     980    2    55          
1998-03-21 06   16.5   165.4     975    2    60          
1998-03-21 12   17.0   166.3     970    3    65          
1998-03-21 18   17.3   167.0     970    3    65          
1998-03-22 00   17.8   167.7     970    3    65          
1998-03-22 06   18.9   168.3     965    3    70          
1998-03-22 12   19.7   169.6     965    3    70          
1998-03-22 18   20.3   170.0     975    2    60          
1998-03-23 00   20.6   169.9     985    2    50          
1998-03-23 06   21.3   169.6     985    2    50          
1998-03-23 12   22.0   168.8     987    1    45          
1998-03-23 18   22.8   167.3     985    2    50          
1998-03-24 00   24.0   165.2     987    1    45          
1998-03-24 06   24.4   163.5     987    1    45          
1998-03-24 12   24.3   163.3     987    1    45          
1998-03-24 18   24.3   162.4     985    1    45          
1998-03-25 00   25.1   162.1     992    1    40          
1998-03-25 12   25.9   160.3            1    45          
1998-03-25 18   25.9   159.4     990    2    50          
1998-03-26 00   26.0   158.5     990    1    45          
1998-03-26 12   26.0   158.3     994    1    40          
1998-03-27 00   30.3   158.2            1    45          
Winds are 10-min average.

Tropical cyclone tracks developed by Michael Bath using operational warnings and advisories and Google Maps.


[Australian Severe Weather index] [Copyright Notice] [Email Contacts] [Search This Site] [Privacy Policy]
Document: tropical_cyclone_yali.htm Updated: 4 September 2016